sensor_id;sensor_type;location;lat;lon;timestamp;temperature;humidity
72576;DHT22;60613;48.658;2.328;2023-04-24T06:02:38;21.20;39.30
72576;DHT22;60613;48.658;2.328;2023-04-24T06:05:07;21.10;40.20
72576;DHT22;60613;48.658;2.328;2023-04-24T06:07:34;21.20;40.20
72576;DHT22;60613;48.658;2.328;2023-04-24T06:09:59;21.20;40.10
72576;DHT22;60613;48.658;2.328;2023-04-24T06:12:25;21.20;40.10
72576;DHT22;60613;48.658;2.328;2023-04-24T06:14:51;21.30;40.00
72576;DHT22;60613;48.658;2.328;2023-04-24T06:17:17;21.30;40.00
72576;DHT22;60613;48.658;2.328;2023-04-24T06:19:43;21.30;39.80
72576;DHT22;60613;48.658;2.328;2023-04-24T06:22:09;21.40;39.80
72576;DHT22;60613;48.658;2.328;2023-04-24T06:24:35;21.40;39.70
72576;DHT22;60613;48.658;2.328;2023-04-24T06:27:00;21.40;39.50
72576;DHT22;60613;48.658;2.328;2023-04-24T06:29:27;21.50;39.50
72576;DHT22;60613;48.658;2.328;2023-04-24T06:31:52;21.50;39.40
72576;DHT22;60613;48.658;2.328;2023-04-24T06:34:18;21.50;39.40
72576;DHT22;60613;48.658;2.328;2023-04-24T06:36:43;21.50;39.30
72576;DHT22;60613;48.658;2.328;2023-04-24T06:39:09;21.50;39.30
72576;DHT22;60613;48.658;2.328;2023-04-24T06:41:35;21.50;39.20
72576;DHT22;60613;48.658;2.328;2023-04-24T06:44:01;21.50;39.20
72576;DHT22;60613;48.658;2.328;2023-04-24T06:46:26;21.50;39.30
72576;DHT22;60613;48.658;2.328;2023-04-24T06:48:53;21.50;39.30
72576;DHT22;60613;48.658;2.328;2023-04-24T06:51:25;21.60;39.10
72576;DHT22;60613;48.658;2.328;2023-04-24T06:53:52;21.60;39.20
72576;DHT22;60613;48.658;2.328;2023-04-24T06:56:18;21.60;39.10
72576;DHT22;60613;48.658;2.328;2023-04-24T06:58:44;21.60;39.10
72576;DHT22;60613;48.658;2.328;2023-04-24T07:01:10;21.60;39.00
72576;DHT22;60613;48.658;2.328;2023-04-24T07:03:36;21.60;39.10
72576;DHT22;60613;48.658;2.328;2023-04-24T07:06:02;21.60;39.20
72576;DHT22;60613;48.658;2.328;2023-04-24T07:08:29;21.60;39.00
72576;DHT22;60613;48.658;2.328;2023-04-24T07:10:56;21.60;38.90
72576;DHT22;60613;48.658;2.328;2023-04-24T07:13:22;21.50;38.30
72576;DHT22;60613;48.658;2.328;2023-04-24T07:15:48;20.20;39.80
72576;DHT22;60613;48.658;2.328;2023-04-24T07:18:16;20.20;39.50
72576;DHT22;60613;48.658;2.328;2023-04-24T07:20:42;20.20;39.40
72576;DHT22;60613;48.658;2.328;2023-04-24T07:23:08;20.20;39.20
72576;DHT22;60613;48.658;2.328;2023-04-24T07:25:33;20.20;39.40
72576;DHT22;60613;48.658;2.328;2023-04-24T07:27:59;20.20;39.30
72576;DHT22;60613;48.658;2.328;2023-04-24T07:30:25;20.00;39.40
72576;DHT22;60613;48.658;2.328;2023-04-24T07:32:51;20.00;39.70
72576;DHT22;60613;48.658;2.328;2023-04-24T07:35:17;19.90;39.70
72576;DHT22;60613;48.658;2.328;2023-04-24T07:37:42;19.80;40.00
72576;DHT22;60613;48.658;2.328;2023-04-24T07:40:12;19.80;40.50
72576;DHT22;60613;48.658;2.328;2023-04-24T07:42:38;19.90;41.40
72576;DHT22;60613;48.658;2.328;2023-04-24T07:45:04;20.10;42.10
72576;DHT22;60613;48.658;2.328;2023-04-24T07:47:30;20.30;41.70
72576;DHT22;60613;48.658;2.328;2023-04-24T07:49:56;20.40;41.00
72576;DHT22;60613;48.658;2.328;2023-04-24T07:52:22;20.50;40.80
72576;DHT22;60613;48.658;2.328;2023-04-24T07:54:47;20.70;41.00
72576;DHT22;60613;48.658;2.328;2023-04-24T07:57:13;20.80;40.90
72576;DHT22;60613;48.658;2.328;2023-04-24T07:59:39;20.90;41.40
72576;DHT22;60613;48.658;2.328;2023-04-24T08:02:05;21.10;42.60
72576;DHT22;60613;48.658;2.328;2023-04-24T08:04:31;21.10;40.60
72576;DHT22;60613;48.658;2.328;2023-04-24T08:06:57;21.20;40.90
72576;DHT22;60613;48.658;2.328;2023-04-24T08:09:23;21.40;40.40
72576;DHT22;60613;48.658;2.328;2023-04-24T08:11:48;21.40;40.20
72576;DHT22;60613;48.658;2.328;2023-04-24T08:14:14;21.50;40.00
72576;DHT22;60613;48.658;2.328;2023-04-24T08:16:40;21.60;40.10
72576;DHT22;60613;48.658;2.328;2023-04-24T08:19:06;21.60;39.80
72576;DHT22;60613;48.658;2.328;2023-04-24T08:21:32;21.60;40.10
72576;DHT22;60613;48.658;2.328;2023-04-24T08:23:58;21.70;40.20
72576;DHT22;60613;48.658;2.328;2023-04-24T08:26:23;21.70;40.20
72576;DHT22;60613;48.658;2.328;2023-04-24T08:28:50;21.80;40.20
72576;DHT22;60613;48.658;2.328;2023-04-24T08:31:15;21.70;40.20
72576;DHT22;60613;48.658;2.328;2023-04-24T08:33:41;21.80;40.10
72576;DHT22;60613;48.658;2.328;2023-04-24T08:36:07;21.90;40.10
72576;DHT22;60613;48.658;2.328;2023-04-24T08:38:33;21.90;39.90
72576;DHT22;60613;48.658;2.328;2023-04-24T08:41:00;21.90;39.90
72576;DHT22;60613;48.658;2.328;2023-04-24T08:43:26;21.90;39.90
72576;DHT22;60613;48.658;2.328;2023-04-24T08:45:53;21.90;39.90
72576;DHT22;60613;48.658;2.328;2023-04-24T08:48:22;21.90;39.90
72576;DHT22;60613;48.658;2.328;2023-04-24T08:50:52;21.90;39.90
72576;DHT22;60613;48.658;2.328;2023-04-24T08:53:18;21.90;40.00
72576;DHT22;60613;48.658;2.328;2023-04-24T08:55:47;21.90;40.00
72576;DHT22;60613;48.658;2.328;2023-04-24T08:58:14;21.90;40.00
72576;DHT22;60613;48.658;2.328;2023-04-24T09:00:40;21.90;39.90
72576;DHT22;60613;48.658;2.328;2023-04-24T09:03:15;21.90;40.00
72576;DHT22;60613;48.658;2.328;2023-04-24T09:05:43;22.00;39.80
72576;DHT22;60613;48.658;2.328;2023-04-24T09:08:12;22.00;40.00
72576;DHT22;60613;48.658;2.328;2023-04-24T09:10:39;22.00;40.10
72576;DHT22;60613;48.658;2.328;2023-04-24T09:13:06;22.00;40.40
72576;DHT22;60613;48.658;2.328;2023-04-24T09:15:34;22.10;40.40
72576;DHT22;60613;48.658;2.328;2023-04-24T09:18:00;22.10;40.30
72576;DHT22;60613;48.658;2.328;2023-04-24T09:20:26;22.10;41.40
72576;DHT22;60613;48.658;2.328;2023-04-24T09:22:56;22.10;40.10
72576;DHT22;60613;48.658;2.328;2023-04-24T09:25:22;22.10;40.30
72576;DHT22;60613;48.658;2.328;2023-04-24T09:27:48;22.20;40.40
72576;DHT22;60613;48.658;2.328;2023-04-24T09:30:14;22.20;40.40
72576;DHT22;60613;48.658;2.328;2023-04-24T09:32:46;22.30;40.20
72576;DHT22;60613;48.658;2.328;2023-04-24T09:35:13;22.30;39.80
72576;DHT22;60613;48.658;2.328;2023-04-24T09:37:44;22.30;39.80
72576;DHT22;60613;48.658;2.328;2023-04-24T09:42:43;22.30;39.70
72576;DHT22;60613;48.658;2.328;2023-04-24T09:45:10;22.40;39.70
72576;DHT22;60613;48.658;2.328;2023-04-24T09:47:40;22.40;39.70
72576;DHT22;60613;48.658;2.328;2023-04-24T09:50:16;22.40;39.60
72576;DHT22;60613;48.658;2.328;2023-04-24T09:52:46;22.40;39.50
72576;DHT22;60613;48.658;2.328;2023-04-24T09:55:19;22.40;39.30
72576;DHT22;60613;48.658;2.328;2023-04-24T09:58:02;22.40;39.20
72576;DHT22;60613;48.658;2.328;2023-04-24T10:00:32;22.40;39.20
72576;DHT22;60613;48.658;2.328;2023-04-24T10:03:05;22.40;39.00
72576;DHT22;60613;48.658;2.328;2023-04-24T10:05:35;22.50;39.10
72576;DHT22;60613;48.658;2.328;2023-04-24T10:08:03;22.50;39.00
72576;DHT22;60613;48.658;2.328;2023-04-24T10:10:33;22.50;39.00
72576;DHT22;60613;48.658;2.328;2023-04-24T10:13:00;22.50;38.90
72576;DHT22;60613;48.658;2.328;2023-04-24T10:15:26;22.50;38.90
72576;DHT22;60613;48.658;2.328;2023-04-24T10:17:52;22.40;39.20
72576;DHT22;60613;48.658;2.328;2023-04-24T10:20:23;22.40;39.80
72576;DHT22;60613;48.658;2.328;2023-04-24T10:22:51;22.30;39.20
72576;DHT22;60613;48.658;2.328;2023-04-24T10:25:23;22.20;39.10
72576;DHT22;60613;48.658;2.328;2023-04-24T10:27:50;22.20;39.10
72576;DHT22;60613;48.658;2.328;2023-04-24T10:30:17;22.20;39.10
72576;DHT22;60613;48.658;2.328;2023-04-24T10:32:43;22.20;39.00
72576;DHT22;60613;48.658;2.328;2023-04-24T10:35:12;22.20;38.90
72576;DHT22;60613;48.658;2.328;2023-04-24T10:37:44;22.20;39.10
72576;DHT22;60613;48.658;2.328;2023-04-24T10:40:12;22.20;39.20
72576;DHT22;60613;48.658;2.328;2023-04-24T10:42:41;22.20;39.20
72576;DHT22;60613;48.658;2.328;2023-04-24T10:45:19;22.20;39.20
72576;DHT22;60613;48.658;2.328;2023-04-24T10:47:58;22.30;39.10
72576;DHT22;60613;48.658;2.328;2023-04-24T10:50:29;22.30;40.20
72576;DHT22;60613;48.658;2.328;2023-04-24T10:53:06;22.30;39.00
72576;DHT22;60613;48.658;2.328;2023-04-24T10:58:08;22.30;38.70
72576;DHT22;60613;48.658;2.328;2023-04-24T11:00:37;22.30;38.70
72576;DHT22;60613;48.658;2.328;2023-04-24T11:03:22;22.40;38.80
72576;DHT22;60613;48.658;2.328;2023-04-24T11:05:53;22.40;38.90
72576;DHT22;60613;48.658;2.328;2023-04-24T11:08:38;22.40;38.80
72576;DHT22;60613;48.658;2.328;2023-04-24T11:11:12;22.50;38.80
72576;DHT22;60613;48.658;2.328;2023-04-24T11:19:12;22.40;39.00
72576;DHT22;60613;48.658;2.328;2023-04-24T11:24:48;22.30;39.30
72576;DHT22;60613;48.658;2.328;2023-04-24T11:27:17;22.40;39.20
72576;DHT22;60613;48.658;2.328;2023-04-24T11:35:24;22.40;38.80
72576;DHT22;60613;48.658;2.328;2023-04-24T11:37:53;22.40;38.90
72576;DHT22;60613;48.658;2.328;2023-04-24T11:40:20;22.40;38.80
72576;DHT22;60613;48.658;2.328;2023-04-24T11:42:49;22.40;38.80
72576;DHT22;60613;48.658;2.328;2023-04-24T11:47:42;22.40;38.90
72576;DHT22;60613;48.658;2.328;2023-04-24T11:50:13;22.40;39.20
72576;DHT22;60613;48.658;2.328;2023-04-24T11:52:41;22.40;39.20
72576;DHT22;60613;48.658;2.328;2023-04-24T11:57:46;22.30;39.20
72576;DHT22;60613;48.658;2.328;2023-04-24T12:00:20;22.30;39.30
72576;DHT22;60613;48.658;2.328;2023-04-24T12:02:46;22.30;39.30
72576;DHT22;60613;48.658;2.328;2023-04-24T12:05:22;22.30;39.30
72576;DHT22;60613;48.658;2.328;2023-04-24T12:07:48;22.30;39.40
72576;DHT22;60613;48.658;2.328;2023-04-24T12:10:14;22.30;39.50
72576;DHT22;60613;48.658;2.328;2023-04-24T12:12:40;22.30;39.50
72576;DHT22;60613;48.658;2.328;2023-04-24T12:15:09;22.30;39.60
72576;DHT22;60613;48.658;2.328;2023-04-24T12:17:36;22.40;39.60
72576;DHT22;60613;48.658;2.328;2023-04-24T12:20:07;22.30;39.60
72576;DHT22;60613;48.658;2.328;2023-04-24T12:22:48;22.30;39.60
72576;DHT22;60613;48.658;2.328;2023-04-24T12:25:16;22.30;39.70
72576;DHT22;60613;48.658;2.328;2023-04-24T12:27:46;22.30;39.70
72576;DHT22;60613;48.658;2.328;2023-04-24T12:30:16;22.30;39.70
72576;DHT22;60613;48.658;2.328;2023-04-24T12:32:46;22.20;39.90
72576;DHT22;60613;48.658;2.328;2023-04-24T12:35:13;22.20;39.70
72576;DHT22;60613;48.658;2.328;2023-04-24T12:37:41;22.20;39.70
72576;DHT22;60613;48.658;2.328;2023-04-24T12:40:09;22.20;39.70
72576;DHT22;60613;48.658;2.328;2023-04-24T12:42:43;22.20;39.60
72576;DHT22;60613;48.658;2.328;2023-04-24T12:45:09;22.20;39.50
72576;DHT22;60613;48.658;2.328;2023-04-24T12:47:37;22.20;39.40
72576;DHT22;60613;48.658;2.328;2023-04-24T12:50:04;22.20;39.60
72576;DHT22;60613;48.658;2.328;2023-04-24T12:52:30;22.20;39.60
72576;DHT22;60613;48.658;2.328;2023-04-24T12:54:57;22.20;39.60
72576;DHT22;60613;48.658;2.328;2023-04-24T12:57:24;22.20;39.70
72576;DHT22;60613;48.658;2.328;2023-04-24T12:59:53;22.20;39.70
72576;DHT22;60613;48.658;2.328;2023-04-24T13:02:19;22.20;39.60
72576;DHT22;60613;48.658;2.328;2023-04-24T13:04:46;22.20;39.60
72576;DHT22;60613;48.658;2.328;2023-04-24T13:07:13;22.20;39.60
72576;DHT22;60613;48.658;2.328;2023-04-24T13:09:40;22.20;39.50
72576;DHT22;60613;48.658;2.328;2023-04-24T13:12:07;22.20;39.40
72576;DHT22;60613;48.658;2.328;2023-04-24T13:14:33;22.20;39.60
72576;DHT22;60613;48.658;2.328;2023-04-24T13:16:58;22.20;39.40
72576;DHT22;60613;48.658;2.328;2023-04-24T13:19:25;22.30;39.30
72576;DHT22;60613;48.658;2.328;2023-04-24T13:21:56;22.30;40.60
72576;DHT22;60613;48.658;2.328;2023-04-24T13:24:25;22.30;39.30
72576;DHT22;60613;48.658;2.328;2023-04-24T13:26:52;22.30;39.10
72576;DHT22;60613;48.658;2.328;2023-04-24T13:29:17;22.30;39.30
72576;DHT22;60613;48.658;2.328;2023-04-24T13:31:43;22.30;39.10
72576;DHT22;60613;48.658;2.328;2023-04-24T13:34:09;22.30;39.10
72576;DHT22;60613;48.658;2.328;2023-04-24T13:36:34;22.30;39.00
72576;DHT22;60613;48.658;2.328;2023-04-24T13:39:00;22.30;39.00
72576;DHT22;60613;48.658;2.328;2023-04-24T13:41:30;22.30;39.10
72576;DHT22;60613;48.658;2.328;2023-04-24T13:43:55;22.30;39.00
72576;DHT22;60613;48.658;2.328;2023-04-24T13:46:21;22.30;38.90
72576;DHT22;60613;48.658;2.328;2023-04-24T13:48:47;22.30;39.00
72576;DHT22;60613;48.658;2.328;2023-04-24T13:51:13;22.30;38.90
72576;DHT22;60613;48.658;2.328;2023-04-24T13:53:39;22.30;38.90
72576;DHT22;60613;48.658;2.328;2023-04-24T13:56:05;22.40;39.00
72576;DHT22;60613;48.658;2.328;2023-04-24T13:58:34;22.40;38.70
72576;DHT22;60613;48.658;2.328;2023-04-24T14:01:02;22.40;38.90
72576;DHT22;60613;48.658;2.328;2023-04-24T14:03:28;22.30;38.90
72576;DHT22;60613;48.658;2.328;2023-04-24T14:05:54;22.30;38.70
72576;DHT22;60613;48.658;2.328;2023-04-24T14:08:19;22.40;38.90
72576;DHT22;60613;48.658;2.328;2023-04-24T14:10:45;22.40;38.80
72576;DHT22;60613;48.658;2.328;2023-04-24T14:13:11;22.40;38.80
72576;DHT22;60613;48.658;2.328;2023-04-24T14:15:36;22.40;38.80
72576;DHT22;60613;48.658;2.328;2023-04-24T14:18:03;22.40;38.70
72576;DHT22;60613;48.658;2.328;2023-04-24T14:20:28;22.40;38.70
72576;DHT22;60613;48.658;2.328;2023-04-24T14:22:54;22.40;38.80
72576;DHT22;60613;48.658;2.328;2023-04-24T14:25:20;22.40;38.60
72576;DHT22;60613;48.658;2.328;2023-04-24T14:27:47;22.30;38.40
72576;DHT22;60613;48.658;2.328;2023-04-24T14:30:13;22.40;38.80
72576;DHT22;60613;48.658;2.328;2023-04-24T14:32:39;22.30;39.00
72576;DHT22;60613;48.658;2.328;2023-04-24T14:35:06;22.30;38.20
72576;DHT22;60613;48.658;2.328;2023-04-24T14:37:32;22.30;38.30
72576;DHT22;60613;48.658;2.328;2023-04-24T14:39:58;22.30;38.60
72576;DHT22;60613;48.658;2.328;2023-04-24T14:42:24;22.30;37.90
72576;DHT22;60613;48.658;2.328;2023-04-24T14:44:49;22.30;37.80
72576;DHT22;60613;48.658;2.328;2023-04-24T14:47:16;22.30;37.80
72576;DHT22;60613;48.658;2.328;2023-04-24T14:49:43;22.40;37.90
72576;DHT22;60613;48.658;2.328;2023-04-24T14:52:09;22.40;37.80
72576;DHT22;60613;48.658;2.328;2023-04-24T14:54:35;22.40;37.80
72576;DHT22;60613;48.658;2.328;2023-04-24T14:57:01;22.50;37.80
72576;DHT22;60613;48.658;2.328;2023-04-24T14:59:28;22.50;37.90
72576;DHT22;60613;48.658;2.328;2023-04-24T15:01:54;22.50;37.90
72576;DHT22;60613;48.658;2.328;2023-04-24T15:04:24;22.50;37.90
72576;DHT22;60613;48.658;2.328;2023-04-24T15:06:51;22.50;37.80
72576;DHT22;60613;48.658;2.328;2023-04-24T15:09:17;22.50;37.90
72576;DHT22;60613;48.658;2.328;2023-04-24T15:11:42;22.60;37.80
72576;DHT22;60613;48.658;2.328;2023-04-24T15:14:08;22.60;37.60
72576;DHT22;60613;48.658;2.328;2023-04-24T15:16:34;22.70;37.60
72576;DHT22;60613;48.658;2.328;2023-04-24T15:18:59;22.70;37.20
72576;DHT22;60613;48.658;2.328;2023-04-24T15:21:25;22.70;37.20
72576;DHT22;60613;48.658;2.328;2023-04-24T15:23:51;22.70;37.10
72576;DHT22;60613;48.658;2.328;2023-04-24T15:26:17;22.70;37.10
72576;DHT22;60613;48.658;2.328;2023-04-24T15:28:42;22.70;37.10
72576;DHT22;60613;48.658;2.328;2023-04-24T15:31:08;22.70;37.20
72576;DHT22;60613;48.658;2.328;2023-04-24T15:33:34;22.70;37.30
72576;DHT22;60613;48.658;2.328;2023-04-24T15:35:59;22.80;37.20
72576;DHT22;60613;48.658;2.328;2023-04-24T15:38:25;22.70;37.10
72576;DHT22;60613;48.658;2.328;2023-04-24T15:40:51;22.80;37.20
72576;DHT22;60613;48.658;2.328;2023-04-24T15:43:16;22.70;37.30
72576;DHT22;60613;48.658;2.328;2023-04-24T15:45:43;22.70;37.40
72576;DHT22;60613;48.658;2.328;2023-04-24T15:48:08;22.70;37.50
72576;DHT22;60613;48.658;2.328;2023-04-24T15:50:34;22.70;37.50
72576;DHT22;60613;48.658;2.328;2023-04-24T15:53:00;22.70;37.60
72576;DHT22;60613;48.658;2.328;2023-04-24T15:55:27;22.70;37.60
72576;DHT22;60613;48.658;2.328;2023-04-24T15:57:52;22.70;37.70
72576;DHT22;60613;48.658;2.328;2023-04-24T16:00:18;22.70;37.70
72576;DHT22;60613;48.658;2.328;2023-04-24T16:02:44;22.70;37.90
72576;DHT22;60613;48.658;2.328;2023-04-24T16:05:10;22.60;37.70
72576;DHT22;60613;48.658;2.328;2023-04-24T16:07:37;22.70;37.90
72576;DHT22;60613;48.658;2.328;2023-04-24T16:10:03;22.70;37.70
72576;DHT22;60613;48.658;2.328;2023-04-24T16:12:29;22.70;37.70
72576;DHT22;60613;48.658;2.328;2023-04-24T16:14:55;22.70;37.80
72576;DHT22;60613;48.658;2.328;2023-04-24T16:17:20;22.70;37.90
72576;DHT22;60613;48.658;2.328;2023-04-24T16:19:46;22.60;38.00
72576;DHT22;60613;48.658;2.328;2023-04-24T16:22:11;22.70;38.00
72576;DHT22;60613;48.658;2.328;2023-04-24T16:24:37;22.70;38.00
72576;DHT22;60613;48.658;2.328;2023-04-24T16:27:03;22.70;38.00
72576;DHT22;60613;48.658;2.328;2023-04-24T16:29:30;22.70;38.10
72576;DHT22;60613;48.658;2.328;2023-04-24T16:31:55;22.70;38.20
72576;DHT22;60613;48.658;2.328;2023-04-24T16:34:22;22.70;38.10
72576;DHT22;60613;48.658;2.328;2023-04-24T16:36:48;22.80;38.00
72576;DHT22;60613;48.658;2.328;2023-04-24T16:39:14;22.80;38.00
72576;DHT22;60613;48.658;2.328;2023-04-24T16:41:39;22.80;37.90
72576;DHT22;60613;48.658;2.328;2023-04-24T16:44:05;22.80;37.80
72576;DHT22;60613;48.658;2.328;2023-04-24T16:46:31;22.90;39.00
72576;DHT22;60613;48.658;2.328;2023-04-24T16:48:57;22.90;37.90
72576;DHT22;60613;48.658;2.328;2023-04-24T16:51:22;22.90;37.90
72576;DHT22;60613;48.658;2.328;2023-04-24T16:53:48;22.90;37.90
72576;DHT22;60613;48.658;2.328;2023-04-24T16:56:14;22.90;37.80
72576;DHT22;60613;48.658;2.328;2023-04-24T16:58:40;22.90;37.80
72576;DHT22;60613;48.658;2.328;2023-04-24T17:01:05;22.90;37.90
72576;DHT22;60613;48.658;2.328;2023-04-24T17:03:31;22.80;38.00
72576;DHT22;60613;48.658;2.328;2023-04-24T17:05:57;22.90;38.10
72576;DHT22;60613;48.658;2.328;2023-04-24T17:08:23;22.70;38.20
72576;DHT22;60613;48.658;2.328;2023-04-24T17:10:48;22.70;38.10
72576;DHT22;60613;48.658;2.328;2023-04-24T17:13:14;22.70;38.20
72576;DHT22;60613;48.658;2.328;2023-04-24T17:15:41;22.60;38.30
72576;DHT22;60613;48.658;2.328;2023-04-24T17:18:06;22.50;38.40
72576;DHT22;60613;48.658;2.328;2023-04-24T17:20:32;22.50;38.50
72576;DHT22;60613;48.658;2.328;2023-04-24T17:22:58;22.50;38.70
72576;DHT22;60613;48.658;2.328;2023-04-24T17:25:24;22.40;38.90
72576;DHT22;60613;48.658;2.328;2023-04-24T17:27:49;22.40;39.00
72576;DHT22;60613;48.658;2.328;2023-04-24T17:30:15;22.40;39.20
72576;DHT22;60613;48.658;2.328;2023-04-24T17:32:42;22.30;39.30
72576;DHT22;60613;48.658;2.328;2023-04-24T17:35:08;22.30;39.40
72576;DHT22;60613;48.658;2.328;2023-04-24T17:37:33;22.30;39.40
72576;DHT22;60613;48.658;2.328;2023-04-24T17:40:00;22.20;39.50
72576;DHT22;60613;48.658;2.328;2023-04-24T17:42:25;22.20;39.60
72576;DHT22;60613;48.658;2.328;2023-04-24T17:44:51;22.20;39.70
72576;DHT22;60613;48.658;2.328;2023-04-24T17:47:17;22.10;39.70
72576;DHT22;60613;48.658;2.328;2023-04-24T17:49:44;22.10;40.00
72576;DHT22;60613;48.658;2.328;2023-04-24T17:52:10;22.10;40.40
72576;DHT22;60613;48.658;2.328;2023-04-24T17:54:36;22.10;40.70
72576;DHT22;60613;48.658;2.328;2023-04-24T17:57:01;22.10;40.80
72576;DHT22;60613;48.658;2.328;2023-04-24T17:59:27;22.10;40.80
72576;DHT22;60613;48.658;2.328;2023-04-24T18:01:53;22.10;40.80
72576;DHT22;60613;48.658;2.328;2023-04-24T18:04:19;22.10;40.80
72576;DHT22;60613;48.658;2.328;2023-04-24T18:06:45;22.10;40.90
72576;DHT22;60613;48.658;2.328;2023-04-24T18:09:10;22.10;40.70
72576;DHT22;60613;48.658;2.328;2023-04-24T18:11:37;22.10;40.70
72576;DHT22;60613;48.658;2.328;2023-04-24T18:14:02;22.20;40.40
72576;DHT22;60613;48.658;2.328;2023-04-24T18:16:28;22.10;40.40
72576;DHT22;60613;48.658;2.328;2023-04-24T18:18:54;22.10;40.60
72576;DHT22;60613;48.658;2.328;2023-04-24T18:21:19;22.10;40.60
72576;DHT22;60613;48.658;2.328;2023-04-24T18:23:45;22.10;40.70
72576;DHT22;60613;48.658;2.328;2023-04-24T18:26:11;22.20;40.40
72576;DHT22;60613;48.658;2.328;2023-04-24T18:28:42;22.20;40.60
72576;DHT22;60613;48.658;2.328;2023-04-24T18:31:07;22.20;40.50
72576;DHT22;60613;48.658;2.328;2023-04-24T18:33:33;22.20;40.40
72576;DHT22;60613;48.658;2.328;2023-04-24T18:35:59;22.30;40.30
72576;DHT22;60613;48.658;2.328;2023-04-24T18:38:25;22.40;41.30
72576;DHT22;60613;48.658;2.328;2023-04-24T18:40:50;22.50;40.00
72576;DHT22;60613;48.658;2.328;2023-04-24T18:43:16;22.60;40.90
72576;DHT22;60613;48.658;2.328;2023-04-24T18:45:41;22.60;39.60
72576;DHT22;60613;48.658;2.328;2023-04-24T18:48:07;22.70;39.40
72576;DHT22;60613;48.658;2.328;2023-04-24T18:50:33;22.70;39.30
72576;DHT22;60613;48.658;2.328;2023-04-24T18:52:58;22.60;39.50
72576;DHT22;60613;48.658;2.328;2023-04-24T18:55:24;22.40;39.80
72576;DHT22;60613;48.658;2.328;2023-04-24T18:57:49;22.20;40.10
